• Join FlightAware (Why Join?)
  • Login
  • US Flag 
06:22AM EDT


 

Airport Tracker/Info


-or-


 

Live Flight TrackerFlight Track Log ✈ SWA1086 ✈ 22-Apr-2013 ✈ KOKC - KMCI

Flight Track Log - Related Links

Times and Time Zones

All times are in EDT time to prevent confusion due to time zone crossing. See the SWA1086 flight status page for this flight to view local times or setup timezone preferences in your user account.

Time Position Orientation Groundspeed Altitude Reporting Facility
EDT Latitude Longitude Course Direction KTS MPH feet Rate Location/Type
11:12AM 35.3769 -97.6094 244° Southwest 131 151 2,500  Level Fort Worth Center
11:14AM 35.3558 -97.6631 244° Southwest 217 250 6,400 3,600 Climbing Fort Worth Center
11:16AM 35.5583 -97.6742 357° North 324 373 15,500 3,600 Climbing Kansas City Center
11:17AM 35.6611 -97.6692 North 358 412 19,200 3,360 Climbing Kansas City Center
11:18AM 35.7658 -97.6236 19° North 387 445 22,400 2,700 Climbing Kansas City Center
11:19AM 35.8517 -97.5833 21° North 402 463 24,800 1,680 Climbing Kansas City Center
11:20AM 35.9811 -97.5225 21° North 411 473 26,000 1,800 Climbing Kansas City Center
11:21AM 36.0883 -97.4717 21° North 412 474 28,600 2,400 Climbing Kansas City Center
11:22AM 36.1903 -97.4253 20° North 399 459 31,000 1,140 Climbing Kansas City Center
11:23AM 36.3117 -97.3511 26° Northeast 405 466 31,000  Level Kansas City Center
11:24AM 36.4103 -97.2756 32° Northeast 415 478 31,000  Level Kansas City Center
11:25AM 36.5081 -97.2033 31° Northeast 412 474 31,000  Level Kansas City Center
11:26AM 36.6064 -97.1294 31° Northeast 412 474 31,000  Level Kansas City Center
11:27AM 36.7147 -97.0478 31° Northeast 408 470 31,000  Level Kansas City Center
11:28AM 36.8131 -96.9744 31° Northeast 408 470 31,000  Level Kansas City Center
11:29AM 36.9050 -96.9050 31° Northeast 411 473 31,000  Level Kansas City Center
11:31AM 37.0028 -96.8314 31° Northeast 411 473 31,000  Level Kansas City Center
11:32AM 37.1208 -96.7408 31° Northeast 413 475 31,000  Level Kansas City Center
11:33AM 37.2181 -96.6658 32° Northeast 413 475 31,000  Level Kansas City Center
11:34AM 37.3156 -96.5911 31° Northeast 412 474 31,000  Level Kansas City Center
11:35AM 37.4136 -96.5167 31° Northeast 412 474 31,000  Level Kansas City Center
11:36AM 37.5217 -96.4333 31° Northeast 411 473 31,000  Level Kansas City Center
11:37AM 37.6231 -96.3806 22° Northeast 399 459 31,000  Level Kansas City Center
11:38AM 37.7394 -96.3433 14° North 399 459 31,000 -480 Level Kansas City Center
11:39AM 37.8456 -96.3100 14° North 394 453 30,000 -960 Descending Kansas City Center
11:40AM 37.9522 -96.2789 13° North 394 453 29,000 -960 Descending Kansas City Center
11:42AM 38.1492 -96.1439 28° Northeast 429 494 27,100 -1,020 Descending Kansas City Center
11:43AM 38.2508 -96.0208 44° Northeast 425 489 26,000 -1,020 Descending Kansas City Center
11:44AM 38.3372 -95.9322 39° Northeast 419 482 25,000 -1,020 Descending Kansas City Center
11:45AM 38.4353 -95.8250 41° Northeast 416 479 23,900 -1,080 Descending Kansas City Center
11:46AM 38.5194 -95.7333 40° Northeast 416 479 22,900 -960 Descending Kansas City Center
11:47AM 38.6033 -95.6422 40° Northeast 414 476 22,000 -1,440 Descending Kansas City Center
11:48AM 38.6986 -95.5386 40° Northeast 403 464 19,900 -2,040 Descending Kansas City Center
11:49AM 38.7786 -95.4497 41° Northeast 398 458 17,900 -1,680 Descending Kansas City Center
11:50AM 38.8644 -95.3392 45° Northeast 393 452 16,500 -1,140 Descending Kansas City Center
11:51AM 38.9311 -95.2444 48° Northeast 378 435 15,600 -1,500 Descending Kansas City Center
11:52AM 39.0092 -95.1364 47° Northeast 373 429 13,500 -1,800 Descending Kansas City Center
11:53AM 39.0728 -95.0417 49° Northeast 371 427 12,000 -840 Descending Kansas City Center
11:54AM 39.1397 -94.9461 48° Northeast 323 372 11,800 -240 Descending Kansas City Center
11:55AM 39.1939 -94.8725 46° Northeast 294 338 11,500 -900 Descending Kansas City Center
11:56AM 39.2747 -94.8450 15° North 271 312 10,000 -1,200 Descending Kansas City Center
11:57AM 39.3447 -94.8250 12° North 269 310 9,100 -840 Descending Kansas City Center
11:58AM 39.4194 -94.8047 12° North 246 283 8,300 -1,800 Descending Kansas City Center
11:59AM 39.4794 -94.7756 21° North 251 289 5,500 -2,340 Descending Kansas City Center
12:00PM 39.4542 -94.7047 115° Southeast 205 236 3,500 -1,260 Descending Kansas City Center
12:01PM 39.4125 -94.6989 174° South 157 181 2,900 -720 Descending Kansas City Center
12:03PM 39.3703 -94.7064 188° South 140 161 2,000 -780 Descending Kansas City Center
12:04PM 39.3392 -94.7158 193° South 123 142 1,400 -540 Descending Kansas City Center
12:05PM 39.3083 -94.7244 192° South 120 138 1,000 -420 Descending Kansas City Center